createdAt,value
2024-01-29T00:01:39.716Z,3.22
2024-01-29T00:04:33.742Z,3.33
2024-01-29T00:07:28.197Z,2.67
2024-01-29T00:10:22.340Z,3.38
2024-01-29T00:13:10.024Z,2.80
2024-01-29T00:15:44.441Z,2.72
2024-01-29T00:18:18.196Z,3.40
2024-01-29T00:20:52.295Z,3.50
2024-01-29T00:23:19.454Z,3.15
2024-01-29T00:26:00.353Z,3.20
2024-01-29T00:28:27.484Z,3.17
2024-01-29T00:31:08.529Z,2.88
2024-01-29T00:33:37.028Z,2.97
2024-01-29T00:36:05.060Z,3.78
2024-01-29T00:38:39.273Z,3.38
2024-01-29T00:41:06.553Z,2.65
2024-01-29T00:43:40.520Z,3.40
2024-01-29T00:46:07.820Z,3.47
2024-01-29T00:48:35.198Z,2.90
2024-01-29T00:51:09.276Z,2.67
2024-01-29T00:53:36.607Z,3.42
2024-01-29T00:56:10.300Z,2.90
2024-01-29T00:58:37.642Z,2.60
2024-01-29T01:01:11.387Z,2.80
2024-01-29T01:03:38.806Z,2.83
2024-01-29T01:06:06.135Z,2.83
2024-01-29T01:08:40.301Z,2.78
2024-01-29T01:11:27.660Z,3.50
2024-01-29T01:14:21.307Z,3.05
2024-01-29T01:17:15.219Z,3.10
2024-01-29T01:20:16.759Z,3.22
2024-01-29T01:23:04.068Z,2.67
2024-01-29T01:25:57.273Z,3.03
2024-01-29T01:28:44.664Z,3.47
2024-01-29T01:31:38.332Z,3.22
2024-01-29T01:34:25.763Z,2.80
2024-01-29T01:37:19.374Z,3.30
2024-01-29T01:40:06.786Z,3.10
2024-01-29T01:43:00.401Z,3.70
2024-01-29T01:45:47.839Z,3.60
2024-01-29T01:48:41.611Z,2.95
2024-01-29T01:51:28.827Z,3.03
2024-01-29T01:54:23.452Z,3.30
2024-01-29T01:57:10.792Z,3.85
2024-01-29T02:00:06.313Z,3.90
2024-01-29T02:02:53.575Z,3.58
2024-01-29T02:05:47.379Z,3.45
2024-01-29T02:08:15.517Z,3.42
2024-01-29T02:10:42.885Z,3.80
2024-01-29T02:13:22.404Z,3.50
2024-01-29T02:15:49.685Z,3.47
2024-01-29T02:18:29.402Z,3.25
2024-01-29T02:20:56.850Z,3.17
2024-01-29T02:23:23.982Z,3.95
2024-01-29T02:25:58.439Z,4.40
2024-01-29T02:28:27.223Z,3.55
2024-01-29T02:31:01.474Z,3.88
2024-01-29T02:33:29.237Z,3.42
2024-01-29T02:38:31.396Z,3.47
2024-01-29T02:40:58.640Z,4.43
2024-01-29T02:43:38.422Z,3.70
2024-01-29T02:46:05.687Z,3.67
2024-01-29T02:48:33.077Z,4.38
2024-01-29T02:53:34.786Z,5.25
2024-01-29T02:58:35.727Z,4.03
2024-01-29T03:01:02.992Z,4.35
2024-01-29T03:03:36.450Z,4.00
2024-01-29T03:06:04.046Z,3.90
2024-01-29T03:08:38.436Z,3.85
2024-01-29T03:11:05.723Z,4.40
2024-01-29T03:13:33.167Z,3.95
2024-01-29T03:18:40.418Z,3.63
2024-01-29T03:21:21.445Z,4.00
2024-01-29T03:24:08.567Z,3.88
2024-01-29T03:27:02.412Z,3.70
2024-01-29T03:29:56.229Z,3.78
2024-01-29T03:32:50.410Z,3.70
2024-01-29T03:35:44.284Z,4.47
2024-01-29T03:38:31.439Z,4.93
2024-01-29T03:41:25.275Z,4.93
2024-01-29T03:44:12.539Z,4.40
2024-01-29T03:47:06.285Z,4.70
2024-01-29T03:49:53.643Z,3.97
2024-01-29T03:52:47.275Z,4.32
2024-01-29T03:55:34.565Z,3.80
2024-01-29T03:58:28.311Z,4.43
2024-01-29T04:01:15.631Z,4.40
2024-01-29T04:04:09.410Z,4.55
2024-01-29T04:06:56.820Z,4.13
2024-01-29T04:09:51.310Z,4.90
2024-01-29T04:12:38.860Z,3.92
2024-01-29T04:15:33.452Z,4.13
2024-01-29T04:18:27.610Z,4.22
2024-01-29T04:21:27.308Z,4.57
2024-01-29T04:24:14.684Z,4.80
2024-01-29T04:27:08.414Z,4.80
2024-01-29T04:29:55.680Z,4.25
2024-01-29T04:32:49.327Z,4.70
2024-01-29T04:35:36.564Z,4.13
2024-01-29T04:38:30.389Z,4.50
2024-01-29T04:41:17.675Z,4.63
2024-01-29T04:44:11.314Z,4.47
2024-01-29T04:46:58.654Z,4.90
2024-01-29T04:49:52.300Z,3.85
2024-01-29T04:52:39.542Z,4.80
2024-01-29T04:55:33.726Z,4.95
2024-01-29T04:58:20.962Z,4.60
2024-01-29T05:01:14.320Z,5.78
2024-01-29T05:04:08.539Z,4.55
2024-01-29T05:07:02.305Z,3.83
2024-01-29T05:09:56.429Z,4.50
2024-01-29T05:12:50.280Z,4.85
2024-01-29T05:15:44.382Z,4.78
2024-01-29T05:18:38.398Z,5.90
2024-01-29T05:21:39.619Z,4.60
2024-01-29T05:24:26.750Z,6.20
2024-01-29T05:27:20.375Z,4.38
2024-01-29T05:30:07.550Z,4.63
2024-01-29T05:33:01.733Z,6.38
2024-01-29T05:36:15.308Z,4.60
2024-01-29T05:39:09.366Z,5.38
2024-01-29T05:41:56.651Z,4.78
2024-01-29T05:44:50.504Z,5.22
2024-01-29T05:47:37.665Z,4.65
2024-01-29T05:50:31.538Z,4.00
2024-01-29T05:53:18.629Z,4.88
2024-01-29T05:56:12.353Z,5.95
2024-01-29T05:58:59.451Z,4.75
2024-01-29T06:01:53.606Z,4.15
2024-01-29T06:04:40.845Z,5.28
2024-01-29T06:07:34.630Z,5.30
2024-01-29T06:10:28.280Z,5.13
2024-01-29T06:13:15.606Z,5.57
2024-01-29T06:16:09.483Z,5.68
2024-01-29T06:19:03.644Z,4.85
2024-01-29T06:21:57.339Z,5.43
2024-01-29T06:24:51.434Z,5.28
2024-01-29T06:27:38.565Z,4.65
2024-01-29T06:30:32.391Z,4.60
2024-01-29T06:33:19.551Z,4.82
2024-01-29T06:36:13.574Z,4.88
2024-01-29T06:39:01.090Z,5.40
2024-01-29T06:41:55.472Z,5.18
2024-01-29T06:44:42.700Z,5.15
2024-01-29T06:47:36.502Z,5.28
2024-01-29T06:50:23.713Z,6.05
2024-01-29T06:53:17.485Z,5.10
2024-01-29T06:56:04.623Z,5.85
2024-01-29T06:59:04.540Z,5.38
2024-01-29T07:01:51.729Z,4.68
2024-01-29T07:04:45.397Z,5.95
2024-01-29T07:07:32.549Z,5.40
2024-01-29T07:10:26.443Z,5.68
2024-01-29T07:13:20.344Z,4.93
2024-01-29T07:16:07.629Z,5.35
2024-01-29T07:19:07.587Z,5.40
2024-01-29T07:21:55.123Z,5.30
2024-01-29T07:24:48.374Z,4.95
2024-01-29T07:27:35.717Z,4.82
2024-01-29T07:30:29.388Z,5.95
2024-01-29T07:33:16.835Z,5.20
2024-01-29T07:36:10.350Z,5.00
2024-01-29T07:38:57.707Z,5.25
2024-01-29T07:41:51.389Z,5.32
2024-01-29T07:44:38.846Z,5.80
2024-01-29T07:47:32.381Z,5.95
2024-01-29T07:50:19.641Z,5.40
2024-01-29T07:53:13.336Z,6.32
2024-01-29T07:56:00.584Z,5.75
2024-01-29T07:58:54.334Z,5.35
2024-01-29T08:01:41.759Z,5.70
2024-01-29T08:04:35.394Z,5.93
2024-01-29T08:07:22.775Z,5.50
2024-01-29T08:10:16.316Z,5.93
2024-01-29T08:13:10.499Z,6.72
2024-01-29T08:15:57.671Z,6.45
2024-01-29T08:18:59.573Z,7.70
2024-01-29T08:21:59.334Z,7.30
2024-01-29T08:24:53.585Z,6.13
2024-01-29T08:27:40.756Z,6.65
2024-01-29T08:30:34.763Z,7.15
2024-01-29T08:33:21.925Z,6.95
2024-01-29T08:36:15.487Z,7.82
2024-01-29T08:39:02.790Z,7.30
2024-01-29T08:41:56.418Z,8.07
2024-01-29T08:44:43.515Z,7.32
2024-01-29T08:47:37.470Z,9.27
2024-01-29T08:50:24.856Z,7.45
2024-01-29T08:53:19.248Z,7.22
2024-01-29T08:56:07.718Z,7.60
2024-01-29T08:59:02.439Z,6.85
2024-01-29T09:01:56.457Z,8.27
2024-01-29T09:04:44.780Z,7.45
2024-01-29T09:07:38.331Z,7.10
2024-01-29T09:10:32.478Z,8.60
2024-01-29T09:13:26.373Z,8.20
2024-01-29T09:16:13.743Z,7.68
2024-01-29T09:19:13.439Z,7.65
2024-01-29T09:22:14.606Z,9.23
2024-01-29T09:25:08.360Z,7.85
2024-01-29T09:28:02.492Z,7.68
2024-01-29T09:30:56.415Z,8.70
2024-01-29T09:33:53.049Z,8.27
2024-01-29T09:36:46.393Z,7.97
2024-01-29T09:39:34.087Z,8.20
2024-01-29T09:42:31.555Z,9.70
2024-01-29T09:45:21.007Z,8.82
2024-01-29T09:51:02.381Z,9.10
2024-01-29T09:53:57.368Z,7.20
2024-01-29T09:56:45.875Z,9.90
2024-01-29T09:59:39.452Z,9.25
2024-01-29T10:02:27.100Z,9.32
2024-01-29T10:05:21.507Z,8.23
2024-01-29T10:08:09.584Z,9.43
2024-01-29T10:11:03.431Z,6.82
2024-01-29T10:13:50.757Z,9.27
2024-01-29T10:16:44.345Z,9.38
2024-01-29T10:19:38.559Z,8.63
2024-01-29T10:22:37.352Z,9.85
2024-01-29T10:25:25.369Z,9.40
2024-01-29T10:28:19.407Z,9.45
2024-01-29T10:31:06.800Z,9.68
2024-01-29T10:34:00.524Z,9.85
2024-01-29T10:36:48.341Z,9.25
2024-01-29T10:39:47.320Z,9.77
2024-01-29T10:42:41.516Z,9.38
2024-01-29T10:45:38.543Z,9.90
2024-01-29T10:48:41.354Z,9.02
2024-01-29T10:51:35.489Z,9.70
2024-01-29T10:54:23.640Z,9.13
2024-01-29T10:57:18.427Z,9.75
2024-01-29T11:00:06.448Z,8.57
2024-01-29T11:03:00.442Z,9.32
2024-01-29T11:05:54.431Z,9.25
2024-01-29T11:08:53.450Z,10.32
2024-01-29T11:11:48.056Z,10.98
2024-01-29T11:14:44.362Z,10.35
2024-01-29T11:17:31.605Z,10.25
2024-01-29T11:20:39.586Z,9.98
2024-01-29T11:23:30.886Z,10.10
2024-01-29T11:26:28.389Z,10.43
2024-01-29T11:29:23.407Z,10.23
2024-01-29T11:32:17.438Z,10.70
2024-01-29T11:35:04.774Z,10.15
2024-01-29T11:38:12.395Z,10.27
2024-01-29T11:41:14.457Z,9.35
2024-01-29T11:44:08.359Z,9.43
2024-01-29T11:46:55.789Z,10.07
2024-01-29T11:49:53.560Z,10.05
2024-01-29T11:52:41.115Z,9.52
2024-01-29T11:55:34.381Z,11.00
2024-01-29T11:58:28.604Z,10.60
2024-01-29T12:01:15.892Z,12.75
2024-01-29T12:04:09.526Z,12.25
2024-01-29T12:06:57.847Z,10.93
2024-01-29T12:09:52.530Z,11.38
2024-01-29T12:12:39.663Z,11.15
2024-01-29T12:15:33.780Z,12.77
2024-01-29T12:18:41.414Z,13.55
2024-01-29T12:21:35.736Z,11.50
2024-01-29T12:24:22.855Z,12.63
2024-01-29T12:27:16.475Z,11.68
2024-01-29T12:30:10.403Z,14.20
2024-01-29T12:32:57.901Z,11.98
2024-01-29T12:35:58.473Z,12.60
2024-01-29T12:38:46.166Z,11.90
2024-01-29T12:41:40.384Z,13.20
2024-01-29T12:44:30.946Z,13.30
2024-01-29T12:47:24.535Z,13.50
2024-01-29T12:50:11.885Z,13.27
2024-01-29T12:53:05.389Z,12.60
2024-01-29T12:55:59.467Z,13.25
2024-01-29T12:58:53.427Z,13.50
2024-01-29T13:01:40.997Z,13.98
2024-01-29T13:04:34.815Z,13.10
2024-01-29T13:07:28.543Z,15.65
2024-01-29T13:10:22.500Z,14.65
2024-01-29T13:13:16.807Z,13.57
2024-01-29T13:16:04.138Z,16.13
2024-01-29T13:19:03.650Z,13.82
2024-01-29T13:21:57.607Z,15.05
2024-01-29T13:24:51.754Z,16.83
2024-01-29T13:27:39.046Z,16.50
2024-01-29T13:30:33.845Z,14.88
2024-01-29T13:33:21.083Z,16.70
2024-01-29T13:36:14.505Z,16.52
2024-01-29T13:39:08.436Z,16.55
2024-01-29T13:41:55.864Z,16.30
2024-01-29T13:44:49.542Z,15.93
2024-01-29T13:47:43.635Z,16.98
2024-01-29T13:50:31.331Z,17.92
2024-01-29T13:53:25.651Z,17.33
2024-01-29T13:56:12.817Z,18.13
2024-01-29T13:59:06.521Z,16.25
2024-01-29T14:01:53.835Z,17.27
2024-01-29T14:04:47.752Z,16.75
2024-01-29T14:07:34.969Z,17.83
2024-01-29T14:10:28.695Z,17.70
2024-01-29T14:13:22.460Z,18.27
2024-01-29T14:16:09.911Z,18.23
2024-01-29T14:19:10.776Z,18.52
2024-01-29T14:22:04.580Z,18.23
2024-01-29T14:25:00.650Z,18.13
2024-01-29T14:27:48.885Z,18.17
2024-01-29T14:30:42.554Z,18.63
2024-01-29T14:33:30.037Z,17.15
2024-01-29T14:36:23.423Z,18.73
2024-01-29T14:39:17.471Z,19.20
2024-01-29T14:42:15.423Z,17.42
2024-01-29T14:45:09.536Z,18.08
2024-01-29T14:48:03.611Z,19.13
2024-01-29T14:50:50.984Z,17.92
2024-01-29T14:53:45.779Z,16.20
2024-01-29T14:56:33.620Z,18.08
2024-01-29T14:59:27.447Z,19.70
2024-01-29T15:02:14.786Z,17.65
2024-01-29T15:05:08.668Z,19.30
2024-01-29T15:07:56.049Z,18.05
2024-01-29T15:10:49.469Z,18.55
2024-01-29T15:13:36.813Z,17.33
2024-01-29T15:16:30.624Z,19.83
2024-01-29T15:19:37.596Z,18.23
2024-01-29T15:22:31.602Z,20.00
2024-01-29T15:25:19.552Z,17.52
2024-01-29T15:28:13.486Z,19.88
2024-01-29T15:31:00.910Z,21.00
2024-01-29T15:33:54.467Z,19.48
2024-01-29T15:36:41.800Z,20.98
2024-01-29T15:39:35.513Z,21.33
2024-01-29T15:42:22.814Z,21.85
2024-01-29T15:45:16.725Z,46.25
2024-01-29T15:48:04.247Z,24.05
2024-01-29T15:50:57.442Z,25.98
2024-01-29T15:53:52.519Z,26.88
2024-01-29T15:56:46.487Z,27.73
2024-01-29T15:59:33.931Z,25.85
2024-01-29T16:02:27.481Z,28.38
2024-01-29T16:05:14.811Z,29.10
2024-01-29T16:08:08.479Z,27.33
2024-01-29T16:10:55.769Z,31.90
2024-01-29T16:13:49.714Z,32.65
2024-01-29T16:16:37.060Z,32.05
2024-01-29T16:19:36.802Z,34.50
2024-01-29T16:22:30.648Z,34.40
2024-01-29T16:25:24.596Z,33.08
2024-01-29T16:28:18.767Z,35.83
2024-01-29T16:31:06.775Z,35.25
2024-01-29T16:34:00.680Z,35.47
2024-01-29T16:36:47.820Z,38.47
2024-01-29T16:39:41.606Z,34.97
2024-01-29T16:42:28.745Z,42.15
2024-01-29T16:45:22.653Z,36.72
2024-01-29T16:48:09.747Z,35.97
2024-01-29T16:51:03.742Z,35.78
2024-01-29T16:53:50.881Z,35.45
2024-01-29T16:56:48.563Z,37.63
2024-01-29T16:59:35.659Z,36.45
2024-01-29T17:02:29.578Z,35.38
2024-01-29T17:05:16.922Z,35.28
2024-01-29T17:08:17.611Z,34.92
2024-01-29T17:11:04.841Z,37.45
2024-01-29T17:13:58.677Z,35.97
2024-01-29T17:16:45.864Z,40.78
2024-01-29T17:19:45.789Z,42.03
2024-01-29T17:22:39.640Z,42.78
2024-01-29T17:25:27.169Z,41.67
2024-01-29T17:28:20.541Z,43.97
2024-01-29T17:31:08.055Z,45.55
2024-01-29T17:34:02.760Z,42.92
2024-01-29T17:36:50.106Z,42.40
2024-01-29T17:39:43.555Z,48.08
2024-01-29T17:42:30.999Z,43.30
2024-01-29T17:45:24.459Z,47.60
2024-01-29T17:48:18.813Z,44.80
2024-01-29T17:51:12.507Z,41.15
2024-01-29T17:53:59.780Z,47.00
2024-01-29T17:56:53.482Z,43.45
2024-01-29T17:59:47.639Z,42.10
2024-01-29T18:02:41.457Z,41.45
2024-01-29T18:05:28.992Z,44.28
2024-01-29T18:08:22.503Z,50.78
2024-01-29T18:11:09.859Z,48.83
2024-01-29T18:14:03.523Z,49.45
2024-01-29T18:16:51.058Z,46.25
2024-01-29T18:19:52.106Z,46.70
2024-01-29T18:22:39.568Z,41.25
2024-01-29T18:25:33.586Z,50.53
2024-01-29T18:28:20.805Z,46.20
2024-01-29T18:31:14.641Z,43.13
2024-01-29T18:34:02.047Z,44.95
2024-01-29T18:36:55.595Z,44.15
2024-01-29T18:39:42.906Z,48.25
2024-01-29T18:42:36.562Z,55.25
2024-01-29T18:45:23.820Z,53.42
2024-01-29T18:48:17.544Z,53.15
2024-01-29T18:51:04.713Z,52.95
2024-01-29T18:53:58.659Z,53.97
2024-01-29T18:56:46.278Z,47.55
2024-01-29T18:59:39.484Z,48.92
2024-01-29T19:02:33.683Z,45.53
2024-01-29T19:05:20.944Z,49.88
2024-01-29T19:08:14.577Z,41.22
2024-01-29T19:11:01.772Z,37.30
2024-01-29T19:13:55.576Z,48.15
2024-01-29T19:16:42.827Z,53.00
2024-01-29T19:19:42.710Z,43.95
2024-01-29T19:22:29.976Z,40.97
2024-01-29T19:25:23.739Z,37.40
2024-01-29T19:28:11.176Z,41.25
2024-01-29T19:31:05.616Z,46.90
2024-01-29T19:33:59.661Z,35.28
2024-01-29T19:36:47.025Z,48.13
2024-01-29T19:39:40.648Z,49.65
2024-01-29T19:42:28.018Z,50.05
2024-01-29T19:45:21.680Z,51.55
2024-01-29T19:48:09.078Z,44.63
2024-01-29T19:51:11.539Z,41.65
2024-01-29T19:53:58.747Z,34.15
2024-01-29T19:56:52.562Z,41.60
2024-01-29T19:59:39.840Z,40.25
2024-01-29T20:02:33.692Z,44.10
2024-01-29T20:05:21.089Z,48.00
2024-01-29T20:08:14.844Z,41.20
2024-01-29T20:11:02.018Z,56.20
2024-01-29T20:13:55.647Z,40.25
2024-01-29T20:16:42.818Z,45.83
2024-01-29T20:19:42.676Z,46.65
2024-01-29T20:22:36.771Z,43.38
2024-01-29T20:25:30.647Z,56.28
2024-01-29T20:28:17.857Z,47.75
2024-01-29T20:31:11.555Z,48.53
2024-01-29T20:34:05.739Z,42.80
2024-01-29T20:36:53.028Z,37.28
2024-01-29T20:39:46.762Z,39.08
2024-01-29T20:42:34.093Z,40.75
2024-01-29T20:45:27.704Z,40.53
2024-01-29T20:48:21.543Z,48.65
2024-01-29T20:51:15.586Z,46.85
2024-01-29T20:54:09.674Z,50.95
2024-01-29T20:56:58.546Z,37.80
2024-01-29T20:59:52.528Z,59.58
2024-01-29T21:02:39.914Z,58.78
2024-01-29T21:05:33.825Z,43.30
2024-01-29T21:08:21.103Z,55.10
2024-01-29T21:11:14.607Z,42.03
2024-01-29T21:14:01.987Z,46.65
2024-01-29T21:16:55.516Z,54.63
2024-01-29T21:19:49.828Z,46.65
2024-01-29T21:22:43.400Z,56.80
2024-01-29T21:25:40.816Z,39.28
2024-01-29T21:28:27.980Z,32.17
2024-01-29T21:31:21.839Z,39.63
2024-01-29T21:34:09.205Z,42.20
2024-01-29T21:37:02.845Z,41.28
2024-01-29T21:39:50.020Z,54.05
2024-01-29T21:42:43.770Z,41.30
2024-01-29T21:45:31.210Z,49.13
2024-01-29T21:48:31.767Z,41.22
2024-01-29T21:51:25.602Z,40.88
2024-01-29T21:54:19.834Z,43.08
2024-01-29T21:57:06.922Z,45.25
2024-01-29T22:00:03.783Z,52.50
2024-01-29T22:02:50.918Z,37.08
2024-01-29T22:05:44.702Z,41.05
2024-01-29T22:08:32.190Z,41.47
2024-01-29T22:11:25.659Z,48.08
2024-01-29T22:14:19.567Z,46.00
2024-01-29T22:17:13.639Z,40.30
2024-01-29T22:20:14.653Z,43.42
2024-01-29T22:23:02.267Z,44.03
2024-01-29T22:25:55.562Z,49.58
2024-01-29T22:28:42.763Z,33.83
2024-01-29T22:31:40.581Z,36.67
2024-01-29T22:34:29.909Z,26.88
2024-01-29T22:37:24.638Z,39.33
2024-01-29T22:40:11.905Z,29.65
2024-01-29T22:43:05.628Z,35.00
2024-01-29T22:45:52.870Z,30.10
2024-01-29T22:48:46.782Z,46.65
2024-01-29T22:51:34.232Z,31.67
2024-01-29T22:54:34.798Z,44.50
2024-01-29T22:57:21.963Z,45.08
2024-01-29T23:00:15.614Z,33.88
2024-01-29T23:03:02.898Z,42.83
2024-01-29T23:05:56.573Z,46.20
2024-01-29T23:08:50.676Z,32.20
2024-01-29T23:11:37.786Z,30.00
2024-01-29T23:14:31.678Z,38.75
2024-01-29T23:17:18.833Z,30.13
2024-01-29T23:20:18.740Z,37.65
2024-01-29T23:23:06.000Z,30.40
2024-01-29T23:25:59.622Z,31.58
2024-01-29T23:28:46.834Z,33.85
2024-01-29T23:31:40.768Z,31.55
2024-01-29T23:34:28.165Z,44.30
2024-01-29T23:37:21.802Z,45.20
2024-01-29T23:40:09.341Z,35.40
2024-01-29T23:43:02.773Z,33.60
2024-01-29T23:45:50.091Z,37.38
2024-01-29T23:48:43.793Z,30.30
2024-01-29T23:51:31.148Z,36.30
2024-01-29T23:54:24.666Z,35.30
2024-01-29T23:57:11.932Z,43.53
